Time,TemperatureF,DewpointF,PressureIn,WindDirection,WindDirectionDegrees,WindSpeedMPH,WindSpeedGustMPH,Humidity,HourlyPrecipIn,Conditions,Clouds,dailyrainin,SoftwareType,DateUTC
2013-04-11 00:03:00,-999.0,-99.9,30.04,ENE,59,9.0,9.0,-999,-99.99,,,-99.99,,2013-04-11 08:03:00,
2013-04-11 00:12:00,3.0,-99.9,30.04,NE,46,7.0,9.0,-999,-99.99,,,-99.99,,2013-04-11 08:12:00,
2013-04-11 00:22:00,-999.0,-99.9,30.05,WNW,296,5.0,6.0,-999,-99.99,,,-99.99,,2013-04-11 08:22:00,
2013-04-11 00:33:00,-999.0,-99.9,30.06,NW,315,4.0,6.0,-999,-99.99,,,-99.99,,2013-04-11 08:33:00,
2013-04-11 00:43:00,-999.0,-99.9,30.06,NW,325,4.0,5.0,-999,-99.99,,,-99.99,,2013-04-11 08:43:00,
2013-04-11 00:52:00,-999.0,-99.9,30.06,WNW,300,4.0,5.0,-999,-99.99,,,-99.99,,2013-04-11 08:52:00,
2013-04-11 01:02:00,-999.0,-99.9,30.07,NNW,333,3.0,4.0,-999,-99.99,,,-99.99,,2013-04-11 09:02:00,
2013-04-11 01:12:00,1.0,-99.9,30.07,NNW,337,3.0,3.0,-999,-99.99,,,-99.99,,2013-04-11 09:12:00,
2013-04-11 01:22:00,-999.0,-99.9,30.08,North,357,2.0,4.0,-999,-99.99,,,-99.99,,2013-04-11 09:22:00,
2013-04-11 01:33:00,-999.0,-99.9,30.08,NNW,334,3.0,4.0,-999,-99.99,,,-99.99,,2013-04-11 09:33:00,
2013-04-11 01:43:00,-999.0,-99.9,30.08,NNW,334,3.0,4.0,-999,-99.99,,,-99.99,,2013-04-11 09:43:00,
2013-04-11 02:03:00,-999.0,-99.9,30.09,NW,313,5.0,5.0,-999,-99.99,,,-99.99,,2013-04-11 10:03:00,
2013-04-11 02:13:00,-2.0,-99.9,30.09,NW,322,5.0,6.0,-999,-99.99,,,-99.99,,2013-04-11 10:13:00,
2013-04-11 02:23:00,-999.0,-99.9,30.09,WNW,296,4.0,4.0,-999,-99.99,,,-99.99,,2013-04-11 10:23:00,
2013-04-11 02:32:00,-999.0,-99.9,30.10,West,280,4.0,6.0,-999,-99.99,,,-99.99,,2013-04-11 10:32:00,
2013-04-11 02:42:00,-999.0,-99.9,30.10,West,280,4.0,6.0,-999,-99.99,,,-99.99,,2013-04-11 10:42:00,
2013-04-11 02:53:00,-999.0,-99.9,30.10,West,280,4.0,6.0,-999,-99.99,,,-99.99,,2013-04-11 10:53:00,
2013-04-11 03:03:00,-1.0,-99.9,30.10,NW,306,3.0,4.0,-999,-99.99,,,-99.99,,2013-04-11 11:03:00,
2013-04-11 03:13:00,-999.0,-99.9,30.11,NE,47,4.0,5.0,-999,-99.99,,,-99.99,,2013-04-11 11:13:00,
2013-04-11 03:32:00,-999.0,-99.9,30.12,NNE,30,5.0,6.0,-999,-99.99,,,-99.99,,2013-04-11 11:32:00,
2013-04-11 03:53:00,-999.0,-99.9,30.13,South,175,1.0,4.0,-999,-99.99,,,-99.99,,2013-04-11 11:53:00,
2013-04-11 04:02:00,-999.0,-99.9,30.13,NE,36,2.0,3.0,-999,-99.99,,,-99.99,,2013-04-11 12:02:00,
2013-04-11 04:13:00,-999.0,-99.9,30.14,ENE,60,3.0,4.0,-999,-99.99,,,-99.99,,2013-04-11 12:13:00,
2013-04-11 04:23:00,-999.0,-99.9,30.14,NNE,16,2.0,4.0,-999,-99.99,,,-99.99,,2013-04-11 12:23:00,
2013-04-11 04:32:00,-999.0,-99.9,30.14,NNE,28,3.0,3.0,-999,-99.99,,,-99.99,,2013-04-11 12:32:00,
2013-04-11 05:02:00,-999.0,-99.9,30.15,SW,219,2.0,2.0,-999,-99.99,,,-99.99,,2013-04-11 13:02:00,
2013-04-11 05:32:00,-999.0,-99.9,30.16,NE,40,1.0,2.0,-999,-99.99,,,-99.99,,2013-04-11 13:32:00,
2013-04-11 05:43:00,-1.0,-99.9,30.17,NNE,28,2.0,3.0,-999,-99.99,,,-99.99,,2013-04-11 13:43:00,
2013-04-11 05:54:00,-999.0,-99.9,30.17,ENE,67,3.0,3.0,-999,-99.99,,,-99.99,,2013-04-11 13:54:00,
2013-04-11 06:03:00,-999.0,-99.9,30.17,NE,41,2.0,3.0,-999,-99.99,,,-99.99,,2013-04-11 14:03:00,
2013-04-11 06:13:00,-3.0,-99.9,30.18,SE,137,1.0,2.0,-999,-99.99,,,-99.99,,2013-04-11 14:13:00,
2013-04-11 06:22:00,-999.0,-99.9,30.18,NW,316,1.0,2.0,-999,-99.99,,,-99.99,,2013-04-11 14:22:00,
2013-04-11 06:33:00,-999.0,-99.9,30.18,NW,316,3.0,4.0,-999,-99.99,,,-99.99,,2013-04-11 14:33:00,
2013-04-11 06:43:00,-999.0,-99.9,30.18,NNE,15,1.0,3.0,-999,-99.99,,,-99.99,,2013-04-11 14:43:00,
2013-04-11 06:53:00,-999.0,-99.9,30.19,NNW,334,3.0,4.0,-999,-99.99,,,-99.99,,2013-04-11 14:53:00,
2013-04-11 07:03:00,-999.0,-99.9,30.19,NW,325,4.0,5.0,-999,-99.99,,,-99.99,,2013-04-11 15:03:00,
2013-04-11 07:12:00,-2.0,-99.9,30.19,NNW,337,4.0,5.0,-999,-99.99,,,-99.99,,2013-04-11 15:12:00,
2013-04-11 07:22:00,-999.0,-99.9,30.20,WNW,300,5.0,9.0,-999,-99.99,,,-99.99,,2013-04-11 15:22:00,
2013-04-11 07:32:00,-999.0,-99.9,30.20,NW,305,5.0,10.0,-999,-99.99,,,-99.99,,2013-04-11 15:32:00,
2013-04-11 07:43:00,-6.0,-99.9,30.20,North,349,6.0,7.0,-999,-99.99,,,-99.99,,2013-04-11 15:43:00,
2013-04-11 07:53:00,-999.0,-99.9,30.20,NNE,17,5.0,7.0,-999,-99.99,,,-99.99,,2013-04-11 15:53:00,
2013-04-11 08:02:00,-999.0,-99.9,30.20,ENE,62,5.0,5.0,-999,-99.99,,,-99.99,,2013-04-11 16:02:00,
2013-04-11 08:13:00,-5.0,-99.9,30.21,ENE,72,4.0,5.0,-999,-99.99,,,-99.99,,2013-04-11 16:13:00,
2013-04-11 08:23:00,-999.0,-99.9,30.21,ENE,70,0.0,2.0,-999,-99.99,,,-99.99,,2013-04-11 16:23:00,
2013-04-11 08:32:00,-999.0,-99.9,30.21,NW,320,2.0,3.0,-999,-99.99,,,-99.99,,2013-04-11 16:32:00,
2013-04-11 08:42:00,-3.0,-99.9,30.22,ENE,73,1.0,2.0,-999,-99.99,,,-99.99,,2013-04-11 16:42:00,
2013-04-11 08:53:00,-999.0,-99.9,30.22,NNW,334,2.0,2.0,-999,-99.99,,,-99.99,,2013-04-11 16:53:00,
2013-04-11 09:03:00,-999.0,-99.9,30.22,NE,55,1.0,2.0,-999,-99.99,,,-99.99,,2013-04-11 17:03:00,
2013-04-11 09:13:00,-999.0,-99.9,30.23,NNE,14,2.0,3.0,-999,-99.99,,,-99.99,,2013-04-11 17:13:00,
2013-04-11 09:23:00,-999.0,-99.9,30.23,NNW,332,3.0,4.0,-999,-99.99,,,-99.99,,2013-04-11 17:23:00,
2013-04-11 09:33:00,-999.0,-99.9,30.23,NE,43,1.0,2.0,-999,-99.99,,,-99.99,,2013-04-11 17:33:00,
2013-04-11 09:53:00,-999.0,-99.9,30.24,SSW,208,2.0,3.0,-999,-99.99,,,-99.99,,2013-04-11 17:53:00,
2013-04-11 10:03:00,-999.0,-99.9,30.24,WNW,297,3.0,4.0,-999,-99.99,,,-99.99,,2013-04-11 18:03:00,
2013-04-11 10:13:00,-2.0,-99.9,30.25,NNW,344,1.0,3.0,-999,-99.99,,,-99.99,,2013-04-11 18:13:00,
2013-04-11 10:23:00,-999.0,-99.9,30.25,East,82,1.0,3.0,-999,-99.99,,,-99.99,,2013-04-11 18:23:00,
2013-04-11 10:33:00,-999.0,-99.9,30.26,SE,126,1.0,2.0,-999,-99.99,,,-99.99,,2013-04-11 18:33:00,
2013-04-11 10:43:00,-2.0,-99.9,30.26,South,188,2.0,2.0,-999,-99.99,,,-99.99,,2013-04-11 18:43:00,
2013-04-11 11:04:00,-999.0,-99.9,30.27,ESE,112,2.0,3.0,-999,-99.99,,,-99.99,,2013-04-11 19:04:00,
2013-04-11 11:14:00,-2.0,-99.9,30.27,ESE,113,2.0,3.0,-999,-99.99,,,-99.99,,2013-04-11 19:14:00,
2013-04-11 11:23:00,-999.0,-99.9,30.27,SE,141,3.0,4.0,-999,-99.99,,,-99.99,,2013-04-11 19:23:00,
2013-04-11 11:33:00,-999.0,-99.9,30.27,SE,125,3.0,4.0,-999,-99.99,,,-99.99,,2013-04-11 19:33:00,
2013-04-11 11:43:00,-999.0,-99.9,30.27,East,93,4.0,4.0,-999,-99.99,,,-99.99,,2013-04-11 19:43:00,
2013-04-11 11:53:00,-999.0,-99.9,30.27,East,94,3.0,4.0,-999,-99.99,,,-99.99,,2013-04-11 19:53:00,
2013-04-11 12:03:00,-999.0,-99.9,30.28,WSW,240,1.0,3.0,-999,-99.99,,,-99.99,,2013-04-11 20:03:00,
2013-04-11 12:13:00,2.0,-99.9,30.28,South,171,0.0,1.0,-999,-99.99,,,-99.99,,2013-04-11 20:13:00,
2013-04-11 12:22:00,-999.0,-99.9,30.28,SE,129,0.0,1.0,-999,-99.99,,,-99.99,,2013-04-11 20:22:00,
2013-04-11 12:34:00,-999.0,-99.9,30.29,East,92,2.0,2.0,-999,-99.99,,,-99.99,,2013-04-11 20:34:00,
2013-04-11 12:43:00,6.0,-99.9,30.29,ESE,104,2.0,3.0,-999,-99.99,,,-99.99,,2013-04-11 20:43:00,
2013-04-11 12:53:00,-999.0,-99.9,30.29,ESE,109,2.0,3.0,-999,-99.99,,,-99.99,,2013-04-11 20:53:00,
2013-04-11 13:03:00,-999.0,-99.9,30.30,South,176,1.0,3.0,-999,-99.99,,,-99.99,,2013-04-11 21:03:00,
2013-04-11 13:13:00,-999.0,-99.9,30.30,South,176,1.0,3.0,-999,-99.99,,,-99.99,,2013-04-11 21:13:00,
2013-04-11 13:23:00,-999.0,-99.9,30.30,SE,143,2.0,3.0,-999,-99.99,,,-99.99,,2013-04-11 21:23:00,
2013-04-11 13:33:00,-999.0,-99.9,30.31,SE,145,3.0,4.0,-999,-99.99,,,-99.99,,2013-04-11 21:33:00,
2013-04-11 13:43:00,8.0,-99.9,30.31,SSE,167,2.0,4.0,-999,-99.99,,,-99.99,,2013-04-11 21:43:00,
2013-04-11 13:54:00,-999.0,-99.9,30.31,South,175,2.0,3.0,-999,-99.99,,,-99.99,,2013-04-11 21:54:00,
2013-04-11 14:03:00,-999.0,-99.9,30.32,SW,222,3.0,3.0,-999,-99.99,,,-99.99,,2013-04-11 22:03:00,
2013-04-11 14:13:00,-999.0,-99.9,30.32,South,171,2.0,3.0,-999,-99.99,,,-99.99,,2013-04-11 22:13:00,
2013-04-11 14:23:00,-999.0,-99.9,30.32,South,177,2.0,3.0,-999,-99.99,,,-99.99,,2013-04-11 22:23:00,
2013-04-11 14:33:00,-999.0,-99.9,30.32,SW,224,2.0,3.0,-999,-99.99,,,-99.99,,2013-04-11 22:33:00,
2013-04-11 14:44:00,13.0,-99.9,30.32,South,183,2.0,3.0,-999,-99.99,,,-99.99,,2013-04-11 22:44:00,
2013-04-11 14:53:00,-999.0,-99.9,30.32,SSE,156,3.0,4.0,-999,-99.99,,,-99.99,,2013-04-11 22:53:00,
2013-04-11 15:04:00,-999.0,-99.9,30.33,SE,142,3.0,4.0,-999,-99.99,,,-99.99,,2013-04-11 23:04:00,
2013-04-11 15:13:00,-999.0,-99.9,30.33,WSW,256,3.0,4.0,-999,-99.99,,,-99.99,,2013-04-11 23:13:00,
2013-04-11 15:23:00,-999.0,-99.9,30.33,West,281,6.0,7.0,-999,-99.99,,,-99.99,,2013-04-11 23:23:00,
2013-04-11 15:33:00,-999.0,-99.9,30.33,West,261,2.0,4.0,-999,-99.99,,,-99.99,,2013-04-11 23:33:00,
2013-04-11 15:43:00,11.0,-99.9,30.33,West,280,3.0,4.0,-999,-99.99,,,-99.99,,2013-04-11 23:43:00,
2013-04-11 15:54:00,-999.0,-99.9,30.34,WSW,256,1.0,2.0,-999,-99.99,,,-99.99,,2013-04-11 23:54:00,
2013-04-11 16:02:00,-999.0,-99.9,30.34,West,267,1.0,2.0,-999,-99.99,,,-99.99,,2013-04-12 00:02:00,
2013-04-11 16:12:00,13.0,-99.9,30.34,NW,308,1.0,2.0,-999,-99.99,,,-99.99,,2013-04-12 00:12:00,
2013-04-11 16:22:00,-999.0,-99.9,30.34,WNW,298,1.0,2.0,-999,-99.99,,,-99.99,,2013-04-12 00:22:00,
2013-04-11 16:33:00,-999.0,-99.9,30.34,WNW,290,2.0,3.0,-999,-99.99,,,-99.99,,2013-04-12 00:33:00,
2013-04-11 16:43:00,11.0,-99.9,30.34,WNW,286,4.0,4.0,-999,-99.99,,,-99.99,,2013-04-12 00:43:00,
2013-04-11 16:53:00,-999.0,-99.9,30.35,WNW,294,9.0,10.0,-999,-99.99,,,-99.99,,2013-04-12 00:53:00,
2013-04-11 17:03:00,-999.0,-99.9,30.35,WNW,299,8.0,9.0,-999,-99.99,,,-99.99,,2013-04-12 01:03:00,
2013-04-11 17:12:00,11.0,-99.9,30.35,WNW,295,7.0,8.0,-999,-99.99,,,-99.99,,2013-04-12 01:12:00,
2013-04-11 17:23:00,-999.0,-99.9,30.35,WNW,296,5.0,6.0,-999,-99.99,,,-99.99,,2013-04-12 01:23:00,
2013-04-11 17:33:00,-999.0,-99.9,30.35,WNW,291,6.0,6.0,-999,-99.99,,,-99.99,,2013-04-12 01:33:00,
2013-04-11 17:42:00,-999.0,-99.9,30.35,WNW,293,8.0,9.0,-999,-99.99,,,-99.99,,2013-04-12 01:42:00,
2013-04-11 17:53:00,-999.0,-99.9,30.35,WNW,294,8.0,9.0,-999,-99.99,,,-99.99,,2013-04-12 01:53:00,
2013-04-11 18:03:00,-999.0,-99.9,30.36,WNW,289,8.0,9.0,-999,-99.99,,,-99.99,,2013-04-12 02:03:00,
2013-04-11 18:12:00,11.0,-99.9,30.36,WNW,286,7.0,8.0,-999,-99.99,,,-99.99,,2013-04-12 02:12:00,
2013-04-11 18:22:00,-999.0,-99.9,30.36,WNW,295,8.0,9.0,-999,-99.99,,,-99.99,,2013-04-12 02:22:00,
2013-04-11 18:32:00,-999.0,-99.9,30.36,WNW,297,7.0,9.0,-999,-99.99,,,-99.99,,2013-04-12 02:32:00,
2013-04-11 18:42:00,11.0,-99.9,30.36,NW,304,6.0,8.0,-999,-99.99,,,-99.99,,2013-04-12 02:42:00,
2013-04-11 18:53:00,-999.0,-99.9,30.36,NW,313,5.0,5.0,-999,-99.99,,,-99.99,,2013-04-12 02:53:00,
2013-04-11 19:02:00,-999.0,-99.9,30.36,NW,304,4.0,6.0,-999,-99.99,,,-99.99,,2013-04-12 03:02:00,
2013-04-11 19:12:00,-999.0,-99.9,30.36,NW,304,4.0,6.0,-999,-99.99,,,-99.99,,2013-04-12 03:12:00,
2013-04-11 19:22:00,-999.0,-99.9,30.36,NW,323,2.0,3.0,-999,-99.99,,,-99.99,,2013-04-12 03:22:00,
2013-04-11 19:33:00,-999.0,-99.9,30.36,West,272,4.0,4.0,-999,-99.99,,,-99.99,,2013-04-12 03:33:00,
2013-04-11 19:43:00,13.0,-99.9,30.36,West,263,5.0,5.0,-999,-99.99,,,-99.99,,2013-04-12 03:43:00,
2013-04-11 19:53:00,-999.0,-99.9,30.36,West,268,5.0,5.0,-999,-99.99,,,-99.99,,2013-04-12 03:53:00,
2013-04-11 20:03:00,-999.0,-99.9,30.36,West,268,5.0,5.0,-999,-99.99,,,-99.99,,2013-04-12 04:03:00,
2013-04-11 20:13:00,-999.0,-99.9,30.37,West,276,6.0,6.0,-999,-99.99,,,-99.99,,2013-04-12 04:13:00,
2013-04-11 20:23:00,-999.0,-99.9,30.37,West,271,5.0,6.0,-999,-99.99,,,-99.99,,2013-04-12 04:23:00,
2013-04-11 20:33:00,-999.0,-99.9,30.37,WSW,249,3.0,4.0,-999,-99.99,,,-99.99,,2013-04-12 04:33:00,
2013-04-11 20:43:00,11.0,-99.9,30.37,WSW,257,4.0,4.0,-999,-99.99,,,-99.99,,2013-04-12 04:43:00,
2013-04-11 20:53:00,-999.0,-99.9,30.37,West,264,3.0,4.0,-999,-99.99,,,-99.99,,2013-04-12 04:53:00,
2013-04-11 21:03:00,-999.0,-99.9,30.37,WNW,284,5.0,5.0,-999,-99.99,,,-99.99,,2013-04-12 05:03:00,
2013-04-11 21:12:00,-999.0,-99.9,30.37,West,263,2.0,4.0,-999,-99.99,,,-99.99,,2013-04-12 05:12:00,
2013-04-11 21:23:00,-999.0,-99.9,30.37,WNW,282,3.0,4.0,-999,-99.99,,,-99.99,,2013-04-12 05:23:00,
2013-04-11 21:32:00,-999.0,-99.9,30.38,WNW,290,6.0,7.0,-999,-99.99,,,-99.99,,2013-04-12 05:32:00,
2013-04-11 21:42:00,6.0,-99.9,30.38,WNW,295,6.0,7.0,-999,-99.99,,,-99.99,,2013-04-12 05:42:00,
2013-04-11 21:52:00,-999.0,-99.9,30.38,WNW,292,9.0,9.0,-999,-99.99,,,-99.99,,2013-04-12 05:52:00,
2013-04-11 22:02:00,-999.0,-99.9,30.39,WNW,296,8.0,9.0,-999,-99.99,,,-99.99,,2013-04-12 06:02:00,
2013-04-11 22:12:00,4.0,-99.9,30.39,WNW,296,7.0,8.0,-999,-99.99,,,-99.99,,2013-04-12 06:12:00,
2013-04-11 22:22:00,-999.0,-99.9,30.39,WNW,301,4.0,5.0,-999,-99.99,,,-99.99,,2013-04-12 06:22:00,
2013-04-11 22:32:00,-999.0,-99.9,30.39,NW,311,4.0,5.0,-999,-99.99,,,-99.99,,2013-04-12 06:32:00,
2013-04-11 22:42:00,-999.0,-99.9,30.39,WNW,299,4.0,5.0,-999,-99.99,,,-99.99,,2013-04-12 06:42:00,
2013-04-11 22:52:00,-999.0,-99.9,30.39,WNW,292,4.0,4.0,-999,-99.99,,,-99.99,,2013-04-12 06:52:00,
2013-04-11 23:02:00,-999.0,-99.9,30.39,NNE,15,1.0,3.0,-999,-99.99,,,-99.99,,2013-04-12 07:02:00,
2013-04-11 23:12:00,3.0,-99.9,30.40,NW,325,2.0,3.0,-999,-99.99,,,-99.99,,2013-04-12 07:12:00,
2013-04-11 23:22:00,-999.0,-99.9,30.40,NW,318,2.0,3.0,-999,-99.99,,,-99.99,,2013-04-12 07:22:00,
2013-04-11 23:32:00,-999.0,-99.9,30.40,NW,318,1.0,2.0,-999,-99.99,,,-99.99,,2013-04-12 07:32:00,
2013-04-11 23:42:00,-999.0,-99.9,30.40,West,272,3.0,3.0,-999,-99.99,,,-99.99,,2013-04-12 07:42:00,
2013-04-11 23:52:00,-999.0,-99.9,30.41,West,277,2.0,3.0,-999,-99.99,,,-99.99,,2013-04-12 07:52:00,